Time;durP1;ratioP1;P1;durP2;ratioP2;P2;SDS_P1;SDS_P2;PMS_P1;PMS_P2;Temp;Humidity;BMP_temperature;BMP_pressure;BME280_temperature;BME280_humidity;BME280_pressure;Samples;Min_cycle;Max_cycle;Signal;HPM_P1;HPM_P2
2020/12/02 00:01:25;;;;;;;52.30;31.77;;;-2.40;99.90;;;-4.50;100.00;101016.81;5029399;27;100640;-63
2020/12/02 00:03:57;;;;;;;54.13;33.47;;;-2.50;99.90;;;-4.39;100.00;101018.19;5029964;27;100619;-63
2020/12/02 00:06:26;;;;;;;55.10;34.27;;;-2.50;99.90;;;-4.30;100.00;101016.19;5030360;27;100040;-63
2020/12/02 00:08:58;;;;;;;56.30;33.37;;;-2.40;99.90;;;-4.18;100.00;101021.03;5030026;27;100190;-60
2020/12/02 00:11:27;;;;;;;58.53;35.27;;;-2.40;99.90;;;-4.22;100.00;101024.66;5029669;27;101101;-61
2020/12/02 00:14:01;;;;;;;52.47;32.80;;;-2.40;99.90;;;-4.28;100.00;101023.09;5029451;27;100841;-62
2020/12/02 00:16:32;;;;;;;61.47;33.90;;;-2.30;99.90;;;-4.31;100.00;101011.88;5029897;27;100047;-64
2020/12/02 00:18:59;;;;;;;63.77;36.30;;;-2.30;99.90;;;-4.62;100.00;101023.25;5030411;27;100487;-63
2020/12/02 00:21:29;;;;;;;64.13;38.43;;;-2.40;99.90;;;-4.71;100.00;101023.50;5029208;27;101602;-63
2020/12/02 00:23:55;;;;;;;58.57;36.33;;;-2.30;99.90;;;-4.68;100.00;101022.53;5028723;27;100731;-63
2020/12/02 00:26:23;;;;;;;57.83;33.17;;;-2.50;99.90;;;-4.67;100.00;101019.91;5029390;27;99956;-62
2020/12/02 00:28:50;;;;;;;62.43;36.33;;;-2.60;99.90;;;-4.72;100.00;101017.44;5029884;27;100090;-62
2020/12/02 00:31:17;;;;;;;58.80;35.70;;;-2.40;99.90;;;-4.74;100.00;101014.00;5029359;27;99968;-62
2020/12/02 00:33:45;;;;;;;58.50;35.53;;;-2.60;99.90;;;-4.72;100.00;101022.66;5029307;27;100629;-63
2020/12/02 00:36:12;;;;;;;53.97;32.83;;;-2.60;99.90;;;-4.70;100.00;101020.84;5029643;27;100187;-62
2020/12/02 00:38:38;;;;;;;59.13;35.03;;;-2.60;99.90;;;-4.72;100.00;101024.41;5029715;27;100424;-61
2020/12/02 00:41:05;;;;;;;58.90;36.73;;;-2.70;99.90;;;-4.63;100.00;101028.50;5029212;27;100544;-62
2020/12/02 00:43:32;;;;;;;57.40;34.90;;;-2.50;99.90;;;-4.67;100.00;101030.34;5029082;27;100552;-62
2020/12/02 00:46:02;;;;;;;55.30;34.07;;;-2.80;99.90;;;-4.64;100.00;101035.47;5029825;27;100134;-61
2020/12/02 00:48:31;;;;;;;58.43;33.47;;;-2.60;99.90;;;-4.68;100.00;101036.47;5044373;27;100342;-62
2020/12/02 00:51:00;;;;;;;57.23;34.43;;;-2.80;99.90;;;-4.68;100.00;101033.00;5026353;27;103377;-63
2020/12/02 00:53:30;;;;;;;57.33;33.80;;;-2.20;99.90;;;-4.67;100.00;101034.72;5026361;27;101708;-62
2020/12/02 00:55:57;;;;;;;56.27;34.10;;;-2.70;99.90;;;-4.67;100.00;101030.34;5026815;27;100222;-62
2020/12/02 00:58:41;;;;;;;63.20;35.63;;;-2.60;99.90;;;-4.70;100.00;101035.66;5026935;27;100433;-62
2020/12/02 01:01:12;;;;;;;59.17;34.60;;;-2.60;99.90;;;-4.85;100.00;101038.72;5028644;27;100781;-61
2020/12/02 01:03:39;;;;;;;58.90;34.23;;;-2.60;99.90;;;-4.80;100.00;101037.66;5028361;27;101296;-62
2020/12/02 01:06:10;;;;;;;57.50;34.23;;;-2.70;99.90;;;-4.80;100.00;101027.22;5029636;27;99903;-62
2020/12/02 01:08:39;;;;;;;57.23;33.90;;;-2.60;99.90;;;-4.72;100.00;101033.09;5029636;27;100235;-62
2020/12/02 01:11:12;;;;;;;61.20;33.97;;;-2.60;99.90;;;-4.63;100.00;101031.97;5028876;27;100297;-62
2020/12/02 01:13:40;;;;;;;59.33;33.47;;;-2.70;99.90;;;-4.60;100.00;101031.88;5028875;27;100594;-62
2020/12/02 01:16:09;;;;;;;57.10;32.30;;;-2.70;99.90;;;-4.64;100.00;101038.09;5029086;27;100189;-62
2020/12/02 01:18:36;;;;;;;60.60;35.83;;;-2.60;99.90;;;-4.51;100.00;101028.16;5028706;27;100232;-61
2020/12/02 01:21:22;;;;;;;64.53;34.67;;;-2.70;99.90;;;-4.53;100.00;101027.34;5027759;27;101353;-62
2020/12/02 01:23:57;;;;;;;58.70;35.30;;;-2.60;99.90;;;-4.52;100.00;101029.03;5028952;27;100620;-62
2020/12/02 01:26:29;;;;;;;60.03;32.87;;;-2.60;99.90;;;-4.57;100.00;101031.78;5027203;27;100225;-62
2020/12/02 01:28:58;;;;;;;55.40;33.77;;;-2.80;99.90;;;-4.64;100.00;101022.44;5028956;27;99929;-61
2020/12/02 01:31:26;;;;;;;57.23;35.20;;;-2.80;99.90;;;-4.63;100.00;101026.75;5028610;27;100613;-62
2020/12/02 01:33:54;;;;;;;50.97;33.53;;;-2.70;99.90;;;-4.64;100.00;101025.03;5028897;27;100428;-62
2020/12/02 01:36:31;;;;;;;52.10;31.40;;;-2.60;99.90;;;-4.71;100.00;101028.75;5028637;27;100173;-62
2020/12/02 01:38:59;;;;;;;61.17;34.73;;;-2.70;99.90;;;-4.67;100.00;101026.88;5028782;27;100592;-61
2020/12/02 01:41:26;;;;;;;57.27;33.60;;;-2.70;99.90;;;-4.65;100.00;101030.31;5027676;27;100696;-62
2020/12/02 01:43:53;;;;;;;57.53;33.80;;;-2.80;99.90;;;-4.62;100.00;101023.25;5028491;27;100537;-61
2020/12/02 01:46:30;;;;;;;57.60;33.30;;;-2.70;99.90;;;-4.61;100.00;101024.97;5028791;27;100210;-62
2020/12/02 01:49:12;;;;;;;53.50;32.43;;;-2.60;99.90;;;-4.67;100.00;101021.66;5028228;27;100103;-62
2020/12/02 01:51:57;;;;;;;57.10;32.60;;;-2.70;99.90;;;-4.73;100.00;101017.47;5028315;27;100919;-61
2020/12/02 01:54:31;;;;;;;58.17;33.57;;;-2.90;99.90;;;-4.74;100.00;101018.38;5027832;27;100461;-61
2020/12/02 01:57:05;;;;;;;53.47;30.77;;;-2.70;99.90;;;-4.80;100.00;101018.53;5028964;27;100039;-61
2020/12/02 01:59:48;;;;;;;53.90;31.83;;;-2.70;99.90;;;-4.70;100.00;101023.44;5028019;27;99940;-61
2020/12/02 02:02:22;;;;;;;54.93;31.60;;;-2.70;99.90;;;-4.75;100.00;101021.88;5027728;27;101883;-62
2020/12/02 02:05:03;;;;;;;58.80;33.40;;;-2.80;99.90;;;-4.69;100.00;101013.84;5028321;27;100854;-62
2020/12/02 02:07:33;;;;;;;57.80;33.23;;;-2.70;99.90;;;-4.71;100.00;101015.69;5030947;27;99907;-62
2020/12/02 02:10:12;;;;;;;60.70;32.97;;;-2.70;99.90;;;-4.67;100.00;101019.03;5032158;27;100227;-62
2020/12/02 02:12:59;;;;;;;59.13;34.33;;;-2.70;99.90;;;-4.82;100.00;101023.78;5031916;27;100620;-61
2020/12/02 02:15:43;;;;;;;61.03;33.73;;;-2.60;99.90;;;-4.85;100.00;101018.69;5031315;27;100160;-62
2020/12/02 02:18:15;;;;;;;57.70;35.13;;;-2.70;99.90;;;-4.86;100.00;101021.34;5031813;27;99941;-62
2020/12/02 02:20:45;;;;;;;54.20;31.40;;;-2.80;99.90;;;-4.91;100.00;101016.22;5031706;27;100030;-61
2020/12/02 02:23:15;;;;;;;52.97;32.03;;;-2.80;99.90;;;-4.97;100.00;101012.94;5030511;27;101470;-61
2020/12/02 02:25:55;;;;;;;51.17;30.80;;;-2.50;99.90;;;-4.97;100.00;101012.94;5031769;27;100461;-62
2020/12/02 02:28:22;;;;;;;51.27;31.10;;;-2.70;99.90;;;-4.96;100.00;101005.09;5032057;27;100126;-61
2020/12/02 02:30:50;;;;;;;58.10;33.70;;;-2.80;99.90;;;-4.92;100.00;101003.22;5032606;27;100328;-63
2020/12/02 02:33:17;;;;;;;60.23;32.27;;;-2.90;99.90;;;-4.89;100.00;101003.13;5031625;27;100647;-62
2020/12/02 02:35:45;;;;;;;54.07;32.50;;;-2.80;99.90;;;-4.96;100.00;101005.09;5033961;27;100867;-63
2020/12/02 02:38:12;;;;;;;52.20;31.10;;;-2.80;99.90;;;-5.00;100.00;101005.19;5050603;27;100035;-61
2020/12/02 02:40:39;;;;;;;52.70;33.50;;;-2.80;99.90;;;-5.04;100.00;101009.63;5034205;27;100230;-61
2020/12/02 02:43:07;;;;;;;51.27;31.40;;;-2.80;99.90;;;-5.12;100.00;101007.25;5031172;27;100791;-62
2020/12/02 02:45:33;;;;;;;58.70;32.77;;;-2.70;99.90;;;-5.21;100.00;101007.50;5030929;27;100587;-62
2020/12/02 02:48:06;;;;;;;58.60;32.97;;;-2.80;99.90;;;-5.25;100.00;101002.41;5032289;27;100086;-62
2020/12/02 02:50:34;;;;;;;57.40;32.83;;;-2.80;99.90;;;-5.24;100.00;100998.91;5032866;27;99880;-62
2020/12/02 02:53:02;;;;;;;53.87;31.40;;;-2.90;99.90;;;-5.20;100.00;101005.75;5031758;27;101586;-62
2020/12/02 02:55:29;;;;;;;48.07;30.00;;;-2.90;99.90;;;-5.20;100.00;101000.53;5030795;27;100381;-62
2020/12/02 02:57:58;;;;;;;57.30;33.30;;;-3.10;99.90;;;-5.15;100.00;101007.31;5030593;27;100097;-63
2020/12/02 03:00:30;;;;;;;57.77;31.63;;;-3.00;99.90;;;-5.11;100.00;101015.94;5031074;27;100533;-62
2020/12/02 03:02:58;;;;;;;49.57;29.03;;;-3.00;99.90;;;-5.14;100.00;101013.41;5032374;27;101038;-63
2020/12/02 03:05:25;;;;;;;53.20;31.73;;;-3.00;99.90;;;-5.08;100.00;101014.09;5031239;27;99831;-62
2020/12/02 03:07:58;;;;;;;51.47;29.37;;;-2.90;99.90;;;-5.15;100.00;101006.47;5031305;27;99850;-62
2020/12/02 03:10:31;;;;;;;51.93;31.13;;;-3.10;99.90;;;-4.97;100.00;101015.56;5030907;27;99978;-60
2020/12/02 03:13:02;;;;;;;52.33;31.03;;;-3.10;99.90;;;-5.14;100.00;101006.44;5030337;27;101297;-59
2020/12/02 03:15:30;;;;;;;51.80;29.57;;;-3.10;99.90;;;-5.25;100.00;101003.25;5028659;27;101053;-61
2020/12/02 03:17:58;;;;;;;59.13;32.83;;;-3.00;99.90;;;-5.27;100.00;101002.44;5030569;27;100031;-61
2020/12/02 03:20:33;;;;;;;56.03;31.70;;;-2.00;99.90;;;-5.37;100.00;101003.59;5032541;27;99830;-61
2020/12/02 03:23:00;;;;;;;56.67;31.73;;;-3.10;99.90;;;-5.32;100.00;100999.13;5031643;27;101115;-61
2020/12/02 03:25:32;;;;;;;55.30;32.13;;;-3.10;99.90;;;-5.30;100.00;100996.44;5031670;27;100157;-62
2020/12/02 03:27:59;;;;;;;50.83;29.97;;;-3.10;99.90;;;-5.49;100.00;100999.56;5030830;27;99990;-61
2020/12/02 03:30:27;;;;;;;54.40;32.77;;;-3.20;99.90;;;-5.47;100.00;100997.78;5034200;27;99767;-61
2020/12/02 03:32:55;;;;;;;54.23;32.33;;;-3.10;99.90;;;-5.43;100.00;101001.13;5032659;27;100293;-61
2020/12/02 03:35:21;;;;;;;42.93;26.47;;;-3.30;99.90;;;-5.48;100.00;101000.41;5029674;27;101018;-63
2020/12/02 03:38:08;;;;;;;56.80;32.87;;;-3.20;99.90;;;-5.62;100.00;100995.53;5035561;27;99949;-63
2020/12/02 03:40:35;;;;;;;51.73;29.77;;;-3.20;99.90;;;-5.65;100.00;101000.84;5030642;27;100128;-62
2020/12/02 03:43:02;;;;;;;53.40;30.33;;;-3.30;99.90;;;-5.60;100.00;100995.50;5031706;27;101441;-63
2020/12/02 03:45:28;;;;;;;56.17;32.30;;;-3.30;99.90;;;-5.62;100.00;100994.69;5030296;27;100807;-63
2020/12/02 03:47:56;;;;;;;53.93;31.00;;;-3.30;99.90;;;-5.68;100.00;100994.81;5030367;27;100072;-63
2020/12/02 03:50:22;;;;;;;48.80;29.93;;;-3.40;99.90;;;-5.72;100.00;100998.44;5030020;27;100156;-63
2020/12/02 03:52:48;;;;;;;45.03;29.77;;;-2.50;99.90;;;-5.72;100.00;100994.06;5029608;27;101338;-63
2020/12/02 03:55:15;;;;;;;48.07;29.73;;;-3.30;99.90;;;-5.74;100.00;100988.03;5029802;27;100238;-63
2020/12/02 03:57:41;;;;;;;50.60;31.87;;;-3.30;99.90;;;-5.64;100.00;100991.25;5030872;27;100116;-62
2020/12/02 04:00:11;;;;;;;53.53;31.83;;;-3.40;99.90;;;-5.80;100.00;100990.78;5028764;27;103100;-62
2020/12/02 04:02:38;;;;;;;50.63;30.13;;;-3.30;99.90;;;-5.88;100.00;100990.16;5029570;27;101309;-62
2020/12/02 04:05:07;;;;;;;52.83;30.23;;;-3.40;99.90;;;-5.89;100.00;100996.25;5030024;27;101010;-62
2020/12/02 04:07:33;;;;;;;49.80;29.60;;;-3.40;99.90;;;-5.88;100.00;100997.97;5030433;27;100232;-62
2020/12/02 04:10:00;;;;;;;51.17;30.70;;;-3.30;99.90;;;-5.84;100.00;100990.03;5030670;27;100340;-62
2020/12/02 04:12:26;;;;;;;54.43;32.57;;;-3.40;99.90;;;-5.92;100.00;100991.97;5029021;27;100861;-62
2020/12/02 04:14:53;;;;;;;54.03;31.80;;;-3.50;99.90;;;-5.94;100.00;100992.94;5029214;27;101273;-62
2020/12/02 04:17:19;;;;;;;55.37;32.00;;;-3.30;99.90;;;-5.95;100.00;100986.88;5029936;27;99991;-62
2020/12/02 04:19:46;;;;;;;56.73;31.33;;;-3.40;99.90;;;-5.90;100.00;100997.16;5030038;27;99973;-62
2020/12/02 04:22:13;;;;;;;56.37;32.50;;;-3.60;99.90;;;-5.84;100.00;100995.25;5029781;27;101024;-62
2020/12/02 04:24:40;;;;;;;52.30;31.10;;;-3.70;99.90;;;-5.87;100.00;100994.44;5032424;27;100526;-63
2020/12/02 04:27:07;;;;;;;55.03;34.23;;;-3.60;99.90;;;-5.89;100.00;100993.66;5030773;27;99766;-62
2020/12/02 04:29:34;;;;;;;52.07;30.40;;;-3.50;99.90;;;-5.93;100.00;100989.41;5032432;27;99775;-63
2020/12/02 04:32:04;;;;;;;57.27;31.00;;;-3.60;99.90;;;-5.90;100.00;100991.94;5044983;27;102416;-62
2020/12/02 04:34:31;;;;;;;58.17;33.53;;;-3.60;99.90;;;-5.90;100.00;100991.94;5033299;27;99940;-63
2020/12/02 04:36:58;;;;;;;57.33;33.00;;;-3.60;99.90;;;-5.88;100.00;100995.38;5032763;27;99966;-62
2020/12/02 04:39:25;;;;;;;55.27;31.57;;;-3.80;99.90;;;-5.93;100.00;100995.47;5031222;27;99984;-64
2020/12/02 04:41:52;;;;;;;58.30;32.20;;;-3.60;99.90;;;-5.96;100.00;100994.72;5030849;27;100910;-63
2020/12/02 04:44:19;;;;;;;50.40;29.63;;;-3.60;99.90;;;-5.91;100.00;100992.84;5030361;27;100156;-62
2020/12/02 04:46:46;;;;;;;47.53;28.53;;;-3.70;99.90;;;-5.85;100.00;100987.44;5033354;27;100438;-63
2020/12/02 04:49:18;;;;;;;60.90;31.63;;;-3.70;99.90;;;-5.78;100.00;100989.84;5034590;27;99739;-63
2020/12/02 04:51:46;;;;;;;52.70;32.90;;;-3.70;99.90;;;-5.85;100.00;100982.25;5032591;27;100081;-63
2020/12/02 04:54:13;;;;;;;53.97;31.93;;;-3.50;99.90;;;-5.87;100.00;100982.28;5032263;27;100941;-62
2020/12/02 04:56:46;;;;;;;56.97;32.33;;;-3.60;99.90;;;-5.90;100.00;100979.78;5030738;27;100097;-62
2020/12/02 04:59:13;;;;;;;52.30;32.47;;;-3.60;99.90;;;-5.95;100.00;100976.44;5030221;27;100055;-62
2020/12/02 05:01:50;;;;;;;58.80;31.70;;;-3.70;99.90;;;-5.86;100.00;100977.91;5026491;27;101293;-63
2020/12/02 05:04:20;;;;;;;55.57;32.93;;;-3.70;99.90;;;-5.88;100.00;100977.13;5029011;27;100120;-63
2020/12/02 05:06:49;;;;;;;61.00;34.67;;;-3.70;99.90;;;-5.97;100.00;100977.38;5035576;27;99987;-62
2020/12/02 05:09:20;;;;;;;53.73;33.50;;;-3.70;99.90;;;-5.90;100.00;100978.91;5031432;27;100299;-63
2020/12/02 05:11:59;;;;;;;62.37;33.13;;;-3.70;99.90;;;-5.91;100.00;100977.19;5030865;27;100001;-62
2020/12/02 05:14:38;;;;;;;54.67;34.17;;;-3.80;99.90;;;-5.91;100.00;100980.66;5030516;27;100662;-63
2020/12/02 05:17:17;;;;;;;57.97;33.07;;;-3.70;99.90;;;-5.85;100.00;100980.50;5030360;27;100035;-62
2020/12/02 05:19:45;;;;;;;56.87;33.33;;;-3.70;99.90;;;-5.86;100.00;100983.13;5029983;27;100204;-63
2020/12/02 05:22:16;;;;;;;55.20;32.60;;;-3.80;99.90;;;-5.73;100.00;100979.31;5028473;27;101715;-63
2020/12/02 05:24:47;;;;;;;56.33;31.30;;;-3.70;99.90;;;-5.69;100.00;100986.19;5028345;27;99909;-62
2020/12/02 05:27:20;;;;;;;53.97;30.87;;;-3.10;99.90;;;-5.70;100.00;100978.41;5029034;27;100013;-62
2020/12/02 05:30:03;;;;;;;59.10;33.90;;;-3.70;99.90;;;-5.86;100.00;100978.78;5029706;27;100269;-61
2020/12/02 05:32:30;;;;;;;62.63;36.03;;;-3.70;99.90;;;-5.76;100.00;100981.16;5026357;27;100343;-61
2020/12/02 05:34:57;;;;;;;58.27;36.27;;;-3.70;99.90;;;-5.85;100.00;100977.03;5027662;27;101101;-63
2020/12/02 05:37:34;;;;;;;52.00;32.50;;;-3.70;99.90;;;-5.99;100.00;100979.16;5029522;27;99937;-63
2020/12/02 05:40:06;;;;;;;52.63;30.33;;;-3.80;99.90;;;-5.96;100.00;100979.06;5028462;27;100104;-61
2020/12/02 05:42:38;;;;;;;55.43;32.27;;;-3.80;99.90;;;-5.93;100.00;100981.59;5030535;27;100666;-60
2020/12/02 05:45:13;;;;;;;51.53;29.63;;;-3.70;99.90;;;-5.84;100.00;100978.75;5032190;27;100459;-64
2020/12/02 05:47:41;;;;;;;60.30;33.07;;;-3.80;99.90;;;-5.82;100.00;100980.44;5031965;27;100074;-61
2020/12/02 05:50:13;;;;;;;65.77;33.47;;;-3.80;99.90;;;-5.72;100.00;100970.63;5032207;27;100204;-61
2020/12/02 05:52:42;;;;;;;58.60;34.57;;;-3.40;99.90;;;-5.74;100.00;100972.41;5031832;27;100782;-61
2020/12/02 05:55:25;;;;;;;63.57;33.47;;;-3.60;99.90;;;-5.75;100.00;100977.66;5031312;27;100940;-63
2020/12/02 05:58:03;;;;;;;55.37;31.90;;;-3.70;99.90;;;-5.74;100.00;100972.41;5032150;27;99994;-63
2020/12/02 06:00:32;;;;;;;60.73;33.63;;;-3.70;99.90;;;-5.73;100.00;100970.66;5031883;27;100330;-63
2020/12/02 06:03:00;;;;;;;55.10;33.03;;;-3.60;99.90;;;-5.79;100.00;100969.03;5032130;27;100811;-60
2020/12/02 06:05:28;;;;;;;58.47;33.63;;;-3.60;99.90;;;-5.91;100.00;100977.19;5031636;27;100679;-60
2020/12/02 06:07:58;;;;;;;58.33;33.83;;;-3.60;99.90;;;-5.94;100.00;100977.28;5031916;27;100003;-62
2020/12/02 06:10:33;;;;;;;59.13;34.13;;;-3.70;99.90;;;-5.99;100.00;100973.94;5032310;27;100228;-62
2020/12/02 06:13:00;;;;;;;58.10;34.67;;;-3.70;99.90;;;-6.01;100.00;100973.13;5031039;27;99918;-63
2020/12/02 06:15:35;;;;;;;63.60;37.43;;;-3.70;99.90;;;-5.96;100.00;100971.25;5031450;27;100790;-60
2020/12/02 06:18:19;;;;;;;63.70;37.30;;;-3.70;99.90;;;-5.99;100.00;100966.97;5031464;27;100159;-60
2020/12/02 06:20:47;;;;;;;58.03;33.90;;;-3.70;99.90;;;-6.02;100.00;100967.03;5031856;27;100152;-63
2020/12/02 06:23:14;;;;;;;84.63;58.10;;;-3.20;99.90;;;-6.13;100.00;100969.06;5031117;27;101576;-62
2020/12/02 06:25:48;;;;;;;82.77;55.30;;;-3.80;99.90;;;-6.10;100.00;100965.53;5031504;27;100435;-60
2020/12/02 06:28:46;;;;;;;80.40;50.77;;;-3.70;99.90;;;-6.14;100.00;100969.09;5031834;27;100379;-60
2020/12/02 06:31:25;;;;;;;70.57;43.80;;;-3.80;99.90;;;-6.26;100.00;100972.84;5031850;27;100254;-60
2020/12/02 06:33:52;;;;;;;74.70;46.30;;;-3.90;99.90;;;-6.28;100.00;100959.84;5031121;27;100699;-63
2020/12/02 06:36:24;;;;;;;79.03;47.43;;;-3.90;99.90;;;-6.31;100.00;100959.09;5031010;27;101348;-60
2020/12/02 06:38:53;;;;;;;80.07;48.20;;;-3.80;99.90;;;-6.39;100.00;100966.19;5031460;27;100482;-62
2020/12/02 06:41:31;;;;;;;75.77;44.30;;;-3.80;99.90;;;-6.32;100.00;100965.19;5034835;27;100143;-62
2020/12/02 06:44:29;;;;;;;73.93;43.70;;;-4.00;99.90;;;-6.33;100.00;100961.72;5030385;27;100838;-62
2020/12/02 06:47:26;;;;;;;70.80;43.30;;;-4.10;99.90;;;-6.32;100.00;100960.84;5031215;27;100853;-62
2020/12/02 06:50:02;;;;;;;67.80;42.43;;;-4.00;99.90;;;-6.27;100.00;100964.16;5031297;27;100062;-62
2020/12/02 06:52:35;;;;;;;89.53;52.80;;;-4.10;99.90;;;-6.18;100.00;100957.88;5030856;27;100172;-62
2020/12/02 06:55:17;;;;;;;78.40;46.27;;;-4.10;99.90;;;-6.10;100.00;100955.09;5030417;27;100511;-62
2020/12/02 06:57:44;;;;;;;71.97;43.80;;;-4.10;99.90;;;-6.08;100.00;100958.53;5030390;27;101004;-62
2020/12/02 07:00:22;;;;;;;73.73;43.30;;;-4.00;99.90;;;-6.14;100.00;100956.91;5030548;27;100674;-62
2020/12/02 07:02:56;;;;;;;79.30;48.57;;;-4.00;99.90;;;-6.07;100.00;100955.03;5031425;27;100392;-63
2020/12/02 07:05:33;;;;;;;72.87;46.80;;;-4.00;99.90;;;-6.12;100.00;100951.69;5029637;27;101529;-60
2020/12/02 07:08:21;;;;;;;89.30;53.00;;;-4.00;99.90;;;-6.18;100.00;100952.66;5030849;27;100224;-61
2020/12/02 07:11:03;;;;;;;116.30;60.43;;;-3.90;99.90;;;-6.22;100.00;100953.66;5030199;27;100396;-62
2020/12/02 07:13:34;;;;;;;102.37;58.37;;;-3.50;99.90;;;-6.20;100.00;100944.06;5030889;27;100217;-62
2020/12/02 07:16:09;;;;;;;88.40;53.13;;;-3.90;99.90;;;-6.20;100.00;100947.53;5030290;27;101003;-62
2020/12/02 07:18:35;;;;;;;96.20;59.47;;;-3.80;99.90;;;-6.00;100.00;100947.03;5030306;27;100595;-62
2020/12/02 07:21:15;;;;;;;74.23;46.07;;;-3.70;99.90;;;-5.94;100.00;100951.25;5030478;27;100299;-62
2020/12/02 07:23:42;;;;;;;59.67;39.60;;;-3.70;99.90;;;-5.88;100.00;100945.84;5028068;27;100118;-62
2020/12/02 07:26:13;;;;;;;64.20;39.43;;;-3.60;99.90;;;-5.75;100.00;100955.03;5030403;27;101269;-62
2020/12/02 07:28:39;;;;;;;59.63;35.57;;;-3.50;99.90;;;-5.69;100.00;100948.84;5030306;27;101020;-61
2020/12/02 07:31:24;;;;;;;58.90;33.90;;;-3.20;99.90;;;-5.62;100.00;100948.63;5030590;27;100413;-62
2020/12/02 07:34:12;;;;;;;54.47;32.90;;;-3.00;99.90;;;-5.54;100.00;100943.19;5030248;27;100397;-62
2020/12/02 07:36:39;;;;;;;58.90;34.47;;;-2.70;99.90;;;-5.44;100.00;100947.28;5029767;27;100100;-62
2020/12/02 07:39:12;;;;;;;59.40;37.57;;;-2.70;99.90;;;-5.37;100.00;100937.53;5029616;27;100390;-62
2020/12/02 07:41:50;;;;;;;54.87;32.97;;;-2.40;99.90;;;-5.26;100.00;100938.94;5030457;27;100151;-61
2020/12/02 07:44:18;;;;;;;54.00;33.27;;;-2.20;99.90;;;-5.04;100.00;100933.97;5029996;27;100121;-62
2020/12/02 07:46:46;;;;;;;49.63;29.83;;;-1.90;99.90;;;-5.09;100.00;100931.50;5030055;27;100902;-63
2020/12/02 07:49:13;;;;;;;48.63;28.50;;;-1.80;99.90;;;-4.98;100.00;100933.81;5029702;27;100658;-61
2020/12/02 07:51:47;;;;;;;47.80;30.37;;;-1.60;99.90;;;-4.80;100.00;100928.03;5033375;27;99965;-63
2020/12/02 07:54:20;;;;;;;45.80;28.80;;;-1.30;99.90;;;-4.59;100.00;100923.06;5030206;27;100065;-63
2020/12/02 07:56:49;;;;;;;47.83;30.17;;;-1.30;99.90;;;-4.77;100.00;100924.47;5029501;27;99948;-60
2020/12/02 07:59:20;;;;;;;52.83;34.13;;;-1.20;99.90;;;-4.62;100.00;100923.16;5028533;27;100779;-60
2020/12/02 08:02:09;;;;;;;48.43;31.43;;;-1.00;99.90;;;-4.54;100.00;100919.38;5029166;27;100045;-62
2020/12/02 08:04:55;;;;;;;49.13;31.10;;;-0.70;99.90;;;-4.50;100.00;100915.78;5029099;27;100198;-60
2020/12/02 08:07:38;;;;;;;44.47;29.30;;;-0.60;99.90;;;-4.33;100.00;100914.41;5029395;27;99996;-60
2020/12/02 08:10:06;;;;;;;40.30;29.03;;;-0.40;99.90;;;-4.08;100.00;100915.31;5029533;27;99879;-63
2020/12/02 08:12:33;;;;;;;45.50;28.53;;;-0.40;99.90;;;-4.04;100.00;100916.91;5043974;27;100759;-63
2020/12/02 08:15:05;;;;;;;47.23;31.07;;;-0.20;99.90;;;-4.10;100.00;100912.75;5030337;27;100295;-61
2020/12/02 08:17:31;;;;;;;49.77;31.53;;;0.00;99.90;;;-3.86;100.00;100895.41;5029221;27;100138;-61
2020/12/02 08:20:01;;;;;;;47.43;30.30;;;0.30;99.90;;;-3.62;100.00;100901.53;5029589;27;100632;-62
2020/12/02 08:22:37;;;;;;;47.60;32.93;;;0.40;99.90;;;-3.51;100.00;100902.00;5029728;27;100273;-62
2020/12/02 08:25:20;;;;;;;50.33;32.23;;;0.50;99.90;;;-3.50;100.00;100903.72;5029488;27;100009;-62
2020/12/02 08:27:49;;;;;;;45.00;28.10;;;0.80;99.90;;;-3.43;100.00;100904.34;5029010;27;100589;-62
2020/12/02 08:30:21;;;;;;;45.83;29.73;;;0.80;99.90;;;-3.36;100.00;100904.09;5029265;27;101141;-62
2020/12/02 08:32:56;;;;;;;43.07;28.93;;;1.00;99.90;;;-3.01;100.00;100894.06;5029825;27;100358;-61
2020/12/02 08:35:31;;;;;;;42.73;27.63;;;1.30;99.90;;;-2.91;100.00;100896.28;5044604;27;100231;-62
2020/12/02 08:38:01;;;;;;;39.83;27.50;;;1.50;99.90;;;-2.77;100.00;100898.38;5028814;27;100852;-61
2020/12/02 08:40:39;;;;;;;44.20;27.87;;;1.60;99.90;;;-2.73;100.00;100893.88;5029392;27;100444;-61
2020/12/02 08:43:26;;;;;;;38.70;25.63;;;1.80;99.90;;;-2.78;100.00;100895.81;5027567;27;100431;-62
2020/12/02 08:45:57;;;;;;;41.93;28.43;;;2.40;99.90;;;-2.70;100.00;100883.25;5028885;27;99938;-62
2020/12/02 08:48:24;;;;;;;44.53;26.77;;;2.20;99.90;;;-2.60;100.00;100890.72;5029050;27;100824;-62
2020/12/02 08:50:54;;;;;;;39.70;26.97;;;2.20;99.90;;;-2.40;100.00;100884.69;5028931;27;100461;-61
2020/12/02 08:53:27;;;;;;;43.50;29.40;;;2.50;99.90;;;-2.30;100.00;100885.16;5029729;27;100001;-61
2020/12/02 08:55:56;;;;;;;61.13;39.80;;;2.60;99.90;;;-2.09;100.00;100893.91;5030049;27;100059;-62
2020/12/02 08:58:24;;;;;;;46.07;31.47;;;2.70;99.90;;;-2.02;100.00;100887.50;5028626;27;101320;-62
2020/12/02 09:00:50;;;;;;;38.80;26.33;;;2.90;99.90;;;-1.92;100.00;100888.81;5028308;27;100864;-63
2020/12/02 09:03:19;;;;;;;40.20;27.97;;;3.10;99.90;;;-1.89;100.00;100886.06;5029705;27;100071;-62
2020/12/02 09:05:45;;;;;;;37.47;26.43;;;3.20;99.90;;;-1.88;100.00;100883.38;5029368;27;100353;-62
2020/12/02 09:08:12;;;;;;;36.53;25.33;;;3.50;99.90;;;-1.69;100.00;100887.81;5028908;27;100707;-62
2020/12/02 09:10:38;;;;;;;32.83;24.20;;;3.50;99.90;;;-1.50;100.00;100883.50;5028730;27;100582;-62
2020/12/02 09:13:06;;;;;;;34.53;24.83;;;3.70;99.90;;;-1.42;100.00;100877.91;5029280;27;100093;-63
2020/12/02 09:15:32;;;;;;;35.77;24.13;;;3.80;99.90;;;-1.43;100.00;100876.19;5030104;27;100085;-62
2020/12/02 09:17:59;;;;;;;35.17;24.63;;;4.00;99.90;;;-1.22;100.00;100880.47;5032105;27;101624;-61
2020/12/02 09:20:27;;;;;;;34.73;24.37;;;4.30;99.90;;;-1.23;100.00;100873.53;5032200;27;100404;-62
2020/12/02 09:22:54;;;;;;;49.63;34.77;;;4.40;99.90;;;-0.83;100.00;100873.41;5032311;27;100039;-62
2020/12/02 09:25:21;;;;;;;42.87;29.57;;;4.60;99.90;;;-0.88;100.00;100870.16;5032695;27;100142;-63
2020/12/02 09:27:47;;;;;;;37.37;26.10;;;4.70;99.90;;;-0.95;100.00;100860.84;5032059;27;101466;-62
2020/12/02 09:30:15;;;;;;;36.83;27.67;;;5.00;99.90;;;-0.92;100.00;100865.09;5032356;27;100689;-63
2020/12/02 09:32:41;;;;;;;32.30;22.27;;;5.20;99.90;;;-0.96;100.00;100863.53;5032608;27;100011;-62
2020/12/02 09:35:14;;;;;;;32.83;24.07;;;5.30;98.50;;;-0.73;100.00;100856.28;5032593;27;100031;-62
2020/12/02 09:37:42;;;;;;;50.53;35.17;;;5.40;96.20;;;-0.78;100.00;100847.78;5032259;27;100685;-62
2020/12/02 09:40:14;;;;;;;38.73;28.13;;;5.40;97.50;;;-0.46;100.00;100848.00;5032294;27;100952;-62
2020/12/02 09:43:20;;;;;;;39.80;26.93;;;5.40;96.90;;;-0.72;100.00;100847.47;5032590;27;100144;-62
2020/12/02 09:45:59;;;;;;;40.87;32.50;;;5.50;94.50;;;-0.43;100.00;100846.06;5032692;27;100086;-62
2020/12/02 09:48:27;;;;;;;29.60;21.47;;;5.60;95.00;;;-0.52;100.00;100843.91;5032276;27;100306;-60
2020/12/02 09:50:54;;;;;;;32.60;22.90;;;5.70;92.30;;;-0.43;100.00;100846.06;5032373;27;100417;-63
2020/12/02 09:53:27;;;;;;;29.20;20.97;;;5.60;93.80;;;-0.18;100.00;100845.72;5033192;27;99969;-62
2020/12/02 09:55:56;;;;;;;29.50;20.70;;;5.70;92.90;;;-0.37;100.00;100837.88;5032630;27;99769;-62
2020/12/02 09:58:26;;;;;;;29.07;19.97;;;5.60;90.40;;;-0.31;100.00;100826.22;5034041;27;100782;-62
2020/12/02 10:01:04;;;;;;;29.90;22.60;;;5.60;91.70;;;-0.22;100.00;100824.91;5033480;27;100192;-63
2020/12/02 10:03:57;;;;;;;31.27;21.23;;;5.80;90.80;;;-0.23;100.00;100834.56;5034179;27;100218;-64
2020/12/02 10:07:17;;;;;;;28.20;20.90;;;5.60;90.20;;;-0.07;100.00;100829.38;5032726;27;99889;-63
2020/12/02 10:10:15;;;;;;;27.80;19.13;;;5.50;88.10;;;-0.11;100.00;100819.94;5028159;27;100132;-63